createdAt,value
2023-04-01T00:00:50.626Z,18.7
2023-04-01T00:20:53.439Z,18.6
2023-04-01T00:40:46.504Z,18.5
2023-04-01T01:00:50.490Z,18.5
2023-04-01T01:20:46.142Z,18.4
2023-04-01T01:40:45.737Z,18.4
2023-04-01T02:00:47.241Z,18.3
2023-04-01T02:20:46.509Z,18.3
2023-04-01T02:40:46.439Z,18.2
2023-04-01T03:00:45.736Z,18.1
2023-04-01T03:20:46.364Z,18.1
2023-04-01T03:40:47.506Z,18.1
2023-04-01T04:01:14.899Z,18
2023-04-01T04:20:47.249Z,18
2023-04-01T04:40:47.059Z,18
2023-04-01T05:00:46.507Z,18
2023-04-01T05:21:12.377Z,18
2023-04-01T05:41:14.818Z,18
2023-04-01T06:01:31.101Z,18
2023-04-01T06:21:12.704Z,18
2023-04-01T06:41:11.990Z,18
2023-04-01T07:01:10.931Z,18.1
2023-04-01T07:21:13.817Z,18.1
2023-04-01T07:41:10.981Z,18.1
2023-04-01T08:01:12.973Z,18.2
2023-04-01T08:21:17.564Z,18.2
2023-04-01T08:41:17.320Z,18.2
2023-04-01T09:01:11.561Z,18.2
2023-04-01T09:21:10.563Z,18.3
2023-04-01T09:41:10.692Z,18.3
2023-04-01T10:01:18.413Z,18.3
2023-04-01T10:21:17.752Z,18.4
2023-04-01T10:41:11.467Z,18.3
2023-04-01T11:01:15.839Z,18.5
2023-04-01T11:21:11.783Z,18.5
2023-04-01T11:41:16.959Z,18.7
2023-04-01T12:01:10.923Z,18.7
2023-04-01T12:21:11.883Z,18.5
2023-04-01T12:41:14.815Z,18.2
2023-04-01T13:01:10.641Z,18.2
2023-04-01T13:21:17.369Z,18.8
2023-04-01T13:41:15.978Z,18.8
2023-04-01T14:01:18.522Z,18.8
2023-04-01T14:21:11.653Z,18.8
2023-04-01T14:41:13.704Z,19
2023-04-01T15:01:17.114Z,18.8
2023-04-01T15:21:11.510Z,18.9
2023-04-01T15:41:17.973Z,18.9
2023-04-01T16:01:09.515Z,18.8
2023-04-01T16:21:11.876Z,18.9
2023-04-01T16:41:17.837Z,19.2
2023-04-01T17:01:16.730Z,19.3
2023-04-01T17:21:14.198Z,19.3
2023-04-01T17:41:11.319Z,19.3
2023-04-01T18:01:11.453Z,19.2
2023-04-01T18:20:50.676Z,19.3
2023-04-01T18:40:47.943Z,19.2
2023-04-01T19:00:46.077Z,19.2
2023-04-01T19:20:46.950Z,19.1
2023-04-01T19:40:46.517Z,19.1
2023-04-01T20:00:46.355Z,19.2
2023-04-01T20:20:45.949Z,19.2
2023-04-01T20:40:45.816Z,19.2
2023-04-01T21:00:45.290Z,19.2
2023-04-01T21:20:46.803Z,19.1
2023-04-01T21:40:46.532Z,19.1
2023-04-01T22:00:54.962Z,19
2023-04-01T22:20:49.046Z,18.8
2023-04-01T22:40:45.827Z,18.8
2023-04-01T23:00:46.641Z,18.7
2023-04-01T23:20:56.542Z,18.7
2023-04-01T23:40:50.687Z,18.6
